Airfield :
LOGIN :

Register | Disclaimer

   EN    FR    IT 

 










Legend :    VFR   Marginal VFR   IFR   Intensive IFR   Very Intensive IFR
Visi :
Ceiling :
>= 8 km
>= 3000ft
5 to 8 km
1000 to 3000 ft
1500m to 5 km
500 to 1000 ft
800 to 1500m
200 to 500 ft
< 800m
< 200 ft
Symbols :   Thunderstorms  Fog  Heavy snow  Heavy precipitations  Wind > 20 kt
SIGMETs :     Misc.  Thunderstorms  Icing  Turbulence  Mountain Waves  Volcanic Ashes






- Airport Elevation : 242 ft
- IATA code : DUB


EIDW - Dublin

CURRENT METAR :
  • 052330Z 36001KT 9999 FEW014 BKN028 M01/M02 Q1042 NOSIG

EXPIRED METARs :
  • 052300Z VRB02KT 9999 FEW014 SCT220 M01/M02 Q1042 NOSIG
  • 052230Z VRB02KT 9999 FEW014 SCT220 M01/M02 Q1042 NOSIG
  • 052130Z 36001KT 9999 FEW014 BKN250 M01/M02 Q1042 NOSIG
  • 052100Z VRB03KT 9999 FEW014 BKN250 00/M02 Q1042 NOSIG
  • 052030Z VRB03KT 9999 FEW014 BKN250 04/M00 Q1043 NOSIG

TAF TAF EIDW
Valid from the 05 at 18:00 until the 06 at 18:00 UTC


051700Z 0518/0618 23007KT 9999 SCT020
BECMG 0520/0522 VRB03KT
BECMG 0606/0608 21010KT



MET'MAP, your aeronautical weather chart ! - Copyright ORBIFLY December 2007 - Disclaimer

ORBIFLY MET'MAP TEAM :

Programming & Development : Alexandra Zaïnal
Original concept : Baudouin d'Aumeries
Technical & hardware support : Manuel Goepfert
Assistance : Marc-Olivier Méhu




SOURCES & CREDITS :

   NOAA